Time;durP1;ratioP1;P1;durP2;ratioP2;P2;SDS_P1;SDS_P2;PMS_P1;PMS_P2;Temp;Humidity;BMP_temperature;BMP_pressure;BME280_temperature;BME280_humidity;BME280_pressure;Samples;Min_cycle;Max_cycle;Signal;HPM_P1;HPM_P2
2022/11/05 00:10:20;;;;;;;0.77;0.70;;;;;;;-141.59;100.00;61776.25;5086826;28;20223;-82
2022/11/05 00:18:20;;;;;;;0.70;0.70;;;;;;;-141.59;100.00;61776.25;5052008;28;20252;-83
2022/11/05 00:20:48;;;;;;;0.60;0.60;;;;;;;-141.59;100.00;61776.25;5084089;28;20201;-82
2022/11/05 00:26:06;;;;;;;0.70;0.70;;;;;;;-141.59;100.00;61776.25;5087051;28;20205;-83
2022/11/05 00:28:34;;;;;;;0.60;0.60;;;;;;;-141.59;100.00;61776.25;5084079;28;20224;-82
2022/11/05 00:31:08;;;;;;;0.50;0.50;;;;;;;-141.59;100.00;61776.25;5086135;28;20197;-83
2022/11/05 00:33:36;;;;;;;2.93;0.73;;;;;;;-141.59;100.00;61776.25;5089152;28;20221;-82
2022/11/05 00:36:04;;;;;;;0.60;0.60;;;;;;;-141.59;100.00;61776.25;5087715;28;20225;-83
2022/11/05 00:38:31;;;;;;;0.70;0.70;;;;;;;-141.59;100.00;61776.25;5084842;28;20220;-83
2022/11/05 00:40:58;;;;;;;0.60;0.60;;;;;;;-141.59;100.00;61776.25;5091121;28;20201;-83
2022/11/05 00:46:11;;;;;;;0.97;0.70;;;;;;;-141.59;100.00;61776.25;5092249;28;20285;-83
2022/11/05 00:51:24;;;;;;;0.70;0.70;;;;;;;-141.59;100.00;61776.25;5089885;28;20517;-83
2022/11/05 00:53:51;;;;;;;1.03;0.60;;;;;;;-141.59;100.00;61776.25;5088197;28;20203;-82
2022/11/05 00:56:18;;;;;;;0.50;0.50;;;;;;;-141.59;100.00;61776.25;5076864;28;20227;-82
2022/11/05 00:58:48;;;;;;;0.77;0.60;;;;;;;-141.59;100.00;61776.25;5090616;28;20204;-83
2022/11/05 01:01:15;;;;;;;0.60;0.60;;;;;;;-141.59;100.00;61776.25;5085320;28;20224;-83
2022/11/05 01:03:42;;;;;;;0.60;0.60;;;;;;;-141.59;100.00;61776.25;5089289;28;20197;-83
2022/11/05 01:06:12;;;;;;;0.53;0.53;;;;;;;-141.59;100.00;61776.25;5089706;28;20244;-82
2022/11/05 01:08:41;;;;;;;0.60;0.60;;;;;;;-141.59;100.00;61776.25;5085544;28;20216;-82
2022/11/05 01:11:11;;;;;;;0.60;0.60;;;;;;;-141.59;100.00;61776.25;5075466;28;20198;-83
2022/11/05 01:13:39;;;;;;;0.60;0.60;;;;;;;-141.59;100.00;61776.25;5091932;28;20201;-82
2022/11/05 01:16:10;;;;;;;1.10;0.50;;;;;;;-141.59;100.00;61776.25;5088581;28;20209;-82
2022/11/05 01:18:38;;;;;;;0.60;0.60;;;;;;;-141.59;100.00;61776.25;5081663;28;20249;-82
2022/11/05 01:21:12;;;;;;;0.50;0.50;;;;;;;-141.59;100.00;61776.25;5081472;28;20224;-83
2022/11/05 01:23:40;;;;;;;0.57;0.57;;;;;;;-141.59;100.00;61776.25;5080356;28;20204;-83
2022/11/05 01:26:08;;;;;;;0.60;0.60;;;;;;;-141.59;100.00;61776.25;5082014;28;20189;-83
2022/11/05 01:28:35;;;;;;;0.60;0.60;;;;;;;-141.59;100.00;61776.25;5086277;28;20209;-82
2022/11/05 01:31:02;;;;;;;0.77;0.70;;;;;;;-141.59;100.00;61776.25;5084510;28;20201;-83
2022/11/05 01:33:31;;;;;;;1.00;0.90;;;;;;;-141.59;100.00;61776.25;5086199;28;20213;-83
2022/11/05 01:35:58;;;;;;;0.80;0.80;;;;;;;-141.59;100.00;61776.25;5080989;28;20224;-83
2022/11/05 01:38:25;;;;;;;1.67;0.83;;;;;;;-141.59;100.00;61776.25;5087435;28;20376;-83
2022/11/05 01:40:52;;;;;;;0.60;0.60;;;;;;;-141.59;100.00;61776.25;5084948;28;20192;-83
2022/11/05 01:43:22;;;;;;;0.70;0.70;;;;;;;-141.59;100.00;61776.25;5089695;28;20204;-83
2022/11/05 01:45:53;;;;;;;0.93;0.63;;;;;;;-141.59;100.00;61776.25;5088074;28;20224;-83
2022/11/05 01:48:26;;;;;;;2.17;0.70;;;;;;;-141.59;100.00;61776.25;5088138;28;20297;-83
2022/11/05 01:50:58;;;;;;;1.57;0.63;;;;;;;-141.59;100.00;61776.25;5083531;28;20205;-83
2022/11/05 01:53:30;;;;;;;0.70;0.70;;;;;;;-141.59;100.00;61776.25;5084784;28;20352;-83
2022/11/05 01:56:01;;;;;;;0.60;0.60;;;;;;;-141.59;100.00;61776.25;5087315;28;20193;-82
2022/11/05 01:58:34;;;;;;;1.23;0.80;;;;;;;-141.59;100.00;61776.25;5089931;28;20221;-83
2022/11/05 02:01:02;;;;;;;0.67;0.67;;;;;;;-141.59;100.00;61776.25;5080562;28;20206;-82
2022/11/05 02:03:30;;;;;;;1.13;0.70;;;;;;;-141.59;100.00;61776.25;5082067;28;20202;-83
2022/11/05 02:06:01;;;;;;;0.97;0.80;;;;;;;-141.59;100.00;61776.25;5081345;28;20254;-82
2022/11/05 02:08:50;;;;;;;0.70;0.70;;;;;;;-141.59;100.00;61776.25;5088428;28;20274;-82
2022/11/05 02:11:19;;;;;;;0.60;0.60;;;;;;;-141.59;100.00;61776.25;5081867;28;20217;-82
2022/11/05 02:13:49;;;;;;;0.67;0.67;;;;;;;-141.59;100.00;61776.25;5090978;28;20203;-83
2022/11/05 02:16:24;;;;;;;1.07;0.70;;;;;;;-141.59;100.00;61776.25;5083697;28;20427;-82
2022/11/05 02:19:00;;;;;;;0.80;0.80;;;;;;;-141.59;100.00;61776.25;5078782;28;20228;-83
2022/11/05 02:22:07;;;;;;;0.83;0.70;;;;;;;-141.59;100.00;61776.25;5081299;28;20196;-82
2022/11/05 02:24:53;;;;;;;0.70;0.70;;;;;;;-141.59;100.00;61776.25;5081257;28;20243;-82
2022/11/05 02:27:36;;;;;;;1.70;0.80;;;;;;;-141.59;100.00;61776.25;5078151;28;20200;-82
2022/11/05 02:30:32;;;;;;;1.50;0.70;;;;;;;-141.59;100.00;61776.25;5085846;28;20243;-82
2022/11/05 02:33:15;;;;;;;1.57;0.77;;;;;;;-141.59;100.00;61776.25;5085960;28;20209;-83
2022/11/05 02:35:59;;;;;;;0.70;0.70;;;;;;;-141.59;100.00;61776.25;5076952;28;20284;-83
2022/11/05 02:38:39;;;;;;;0.70;0.70;;;;;;;-141.59;100.00;61776.25;5080039;28;20221;-82
2022/11/05 02:41:12;;;;;;;0.80;0.70;;;;;;;-141.59;100.00;61776.25;5084156;28;20208;-82
2022/11/05 02:43:52;;;;;;;1.00;0.70;;;;;;;-141.59;100.00;61776.25;5084893;28;20255;-83
2022/11/05 02:46:31;;;;;;;0.60;0.60;;;;;;;-141.59;100.00;61776.25;5086844;28;20208;-83
2022/11/05 02:49:09;;;;;;;1.00;0.70;;;;;;;-141.59;100.00;61776.25;5085479;28;20197;-83
2022/11/05 02:51:47;;;;;;;0.70;0.70;;;;;;;-141.59;100.00;61776.25;5084816;28;20250;-82
2022/11/05 02:54:21;;;;;;;1.23;0.70;;;;;;;-141.59;100.00;61776.25;5080501;28;20208;-83
2022/11/05 02:56:51;;;;;;;0.73;0.73;;;;;;;-141.59;100.00;61776.25;5098224;28;20204;-83
2022/11/05 02:59:18;;;;;;;0.60;0.60;;;;;;;-141.59;100.00;61776.25;5083943;28;20201;-83
2022/11/05 03:01:48;;;;;;;0.80;0.67;;;;;;;-141.59;100.00;61776.25;5088789;28;20204;-83
2022/11/05 03:04:19;;;;;;;1.13;0.70;;;;;;;-141.59;100.00;61776.25;5077378;28;20206;-83
2022/11/05 03:06:58;;;;;;;0.60;0.60;;;;;;;-141.59;100.00;61776.25;5086549;28;20258;-83
2022/11/05 03:09:44;;;;;;;0.60;0.60;;;;;;;-141.59;100.00;61776.25;5099328;28;20200;-83
2022/11/05 03:12:26;;;;;;;0.90;0.70;;;;;;;-141.59;100.00;61776.25;5080715;28;20212;-82
2022/11/05 03:15:01;;;;;;;0.93;0.70;;;;;;;-141.59;100.00;61776.25;5081896;28;20211;-83
2022/11/05 03:17:37;;;;;;;1.53;0.60;;;;;;;-141.59;100.00;61776.25;5080242;28;20231;-82
2022/11/05 03:20:18;;;;;;;0.60;0.60;;;;;;;-141.59;100.00;61776.25;5083257;28;20224;-82
2022/11/05 03:22:51;;;;;;;0.80;0.70;;;;;;;-141.59;100.00;61776.25;5103571;28;20216;-82
2022/11/05 03:25:22;;;;;;;0.67;0.67;;;;;;;-141.59;100.00;61776.25;5081039;28;20238;-83
2022/11/05 03:27:56;;;;;;;2.90;0.70;;;;;;;-141.59;100.00;61776.25;5081706;28;20224;-83
2022/11/05 03:30:24;;;;;;;0.70;0.70;;;;;;;-141.59;100.00;61776.25;5079233;28;20220;-83
2022/11/05 03:33:01;;;;;;;1.00;0.90;;;;;;;-141.59;100.00;61776.25;5081057;28;20197;-83
2022/11/05 03:35:34;;;;;;;1.30;0.70;;;;;;;-141.59;100.00;61776.25;5084974;28;20232;-82
2022/11/05 03:38:06;;;;;;;0.83;0.80;;;;;;;-141.59;100.00;61776.25;5087277;28;20220;-83
2022/11/05 03:40:36;;;;;;;0.90;0.80;;;;;;;-141.59;100.00;61776.25;5071308;28;20194;-82
2022/11/05 03:43:08;;;;;;;0.80;0.80;;;;;;;-141.59;100.00;61776.25;5083513;28;20205;-82
2022/11/05 03:45:40;;;;;;;1.17;0.90;;;;;;;-141.59;100.00;61776.25;5085117;28;20205;-82
2022/11/05 03:48:12;;;;;;;0.73;0.73;;;;;;;-141.59;100.00;61776.25;5077335;28;20206;-82
2022/11/05 03:50:45;;;;;;;1.70;0.70;;;;;;;-141.59;100.00;61776.25;5077115;28;20213;-83
2022/11/05 03:53:16;;;;;;;1.70;0.83;;;;;;;-141.59;100.00;61776.25;5085034;28;20272;-82
2022/11/05 03:55:51;;;;;;;0.87;0.80;;;;;;;-141.59;100.00;61776.25;5079169;28;20193;-83
2022/11/05 03:58:21;;;;;;;1.10;1.00;;;;;;;-141.59;100.00;61776.25;5097758;28;20257;-83
2022/11/05 04:00:49;;;;;;;1.60;0.90;;;;;;;-141.59;100.00;61776.25;5079558;28;20205;-83
2022/11/05 04:03:18;;;;;;;0.80;0.80;;;;;;;-141.59;100.00;61776.25;5083434;28;20197;-82
2022/11/05 04:14:00;;;;;;;0.70;0.70;;;;;;;-141.59;100.00;61776.25;5084297;28;20211;-83
2022/11/05 04:24:06;;;;;;;0.80;0.80;;;;;;;-141.59;100.00;61776.25;5074992;28;20235;-83
2022/11/05 04:24:45;;;;;;;0.90;0.90;;;;;;;-141.59;100.00;61776.25;5075615;28;20202;-83
2022/11/05 04:27:14;;;;;;;0.80;0.80;;;;;;;-141.59;100.00;61776.25;5076454;28;20207;-82
2022/11/05 04:32:25;;;;;;;0.80;0.80;;;;;;;-141.59;100.00;61776.25;5081236;28;20303;-83
2022/11/05 04:34:54;;;;;;;0.70;0.70;;;;;;;-141.59;100.00;61776.25;5079661;28;20196;-82
2022/11/05 04:37:21;;;;;;;0.87;0.87;;;;;;;-141.59;100.00;61776.25;5087115;28;20240;-83
2022/11/05 04:39:48;;;;;;;0.70;0.70;;;;;;;-141.59;100.00;61776.25;5083896;28;20196;-83
2022/11/05 04:42:15;;;;;;;0.80;0.80;;;;;;;-141.59;100.00;61776.25;5101331;28;20301;-82
2022/11/05 04:44:45;;;;;;;0.73;0.73;;;;;;;-141.59;100.00;61776.25;5077169;28;20204;-83
2022/11/05 04:47:12;;;;;;;0.70;0.70;;;;;;;-141.59;100.00;61776.25;5081455;28;20201;-83
2022/11/05 04:49:39;;;;;;;0.73;0.73;;;;;;;-141.59;100.00;61776.25;5085157;28;20197;-82
2022/11/05 04:52:08;;;;;;;0.80;0.80;;;;;;;-141.59;100.00;61776.25;5081286;28;20220;-82
2022/11/05 04:54:35;;;;;;;0.90;0.90;;;;;;;-141.59;100.00;61776.25;5081125;28;20201;-83
2022/11/05 04:57:02;;;;;;;0.83;0.80;;;;;;;-141.59;100.00;61776.25;5078962;28;20206;-83
2022/11/05 04:59:29;;;;;;;0.83;0.83;;;;;;;-141.59;100.00;61776.25;5083101;28;20226;-82
2022/11/05 05:01:59;;;;;;;0.70;0.70;;;;;;;-141.59;100.00;61776.25;5091017;28;20292;-83
2022/11/05 05:04:26;;;;;;;1.37;0.83;;;;;;;-141.59;100.00;61776.25;5084921;28;20213;-83
2022/11/05 05:06:53;;;;;;;0.70;0.70;;;;;;;-141.59;100.00;61776.25;5092317;28;20197;-82
2022/11/05 05:09:22;;;;;;;0.70;0.70;;;;;;;-141.59;100.00;61776.25;5081052;28;20197;-83
2022/11/05 05:11:50;;;;;;;0.70;0.70;;;;;;;-141.59;100.00;61776.25;5084603;28;20204;-83
2022/11/05 05:14:19;;;;;;;0.93;0.90;;;;;;;-141.59;100.00;61776.25;5088322;28;20211;-83
2022/11/05 05:16:46;;;;;;;0.90;0.90;;;;;;;-141.59;100.00;61776.25;5090065;28;20205;-83
2022/11/05 05:19:13;;;;;;;0.80;0.80;;;;;;;-141.59;100.00;61776.25;5087026;28;20228;-83
2022/11/05 05:21:39;;;;;;;0.70;0.70;;;;;;;-141.59;100.00;61776.25;5086682;28;20228;-83
2022/11/05 05:24:08;;;;;;;0.80;0.80;;;;;;;-141.59;100.00;61776.25;5085333;28;20205;-82
2022/11/05 05:26:38;;;;;;;0.80;0.80;;;;;;;-141.59;100.00;61776.25;5082757;28;20200;-83
2022/11/05 05:29:07;;;;;;;0.70;0.70;;;;;;;-141.59;100.00;61776.25;5089483;28;20211;-82
2022/11/05 05:31:34;;;;;;;0.90;0.90;;;;;;;-141.59;100.00;61776.25;5090646;28;20192;-83
2022/11/05 05:34:01;;;;;;;0.97;0.80;;;;;;;-141.59;100.00;61776.25;5087311;28;20199;-83
2022/11/05 05:36:29;;;;;;;1.27;0.87;;;;;;;-141.59;100.00;61776.25;5100897;28;20217;-83
2022/11/05 05:38:59;;;;;;;0.80;0.80;;;;;;;-141.59;100.00;61776.25;5093422;28;20220;-83
2022/11/05 05:41:27;;;;;;;0.80;0.80;;;;;;;-141.59;100.00;61776.25;5086598;28;20212;-82
2022/11/05 05:43:55;;;;;;;1.03;0.90;;;;;;;-141.59;100.00;61776.25;5089683;28;20193;-82
2022/11/05 05:46:25;;;;;;;1.87;1.07;;;;;;;-141.59;100.00;61776.25;5086100;28;20209;-83
2022/11/05 05:48:52;;;;;;;0.90;0.90;;;;;;;-141.59;100.00;61776.25;5080864;28;20205;-82
2022/11/05 05:51:19;;;;;;;0.80;0.80;;;;;;;-141.59;100.00;61776.25;5085902;28;20306;-82
2022/11/05 05:53:49;;;;;;;0.90;0.87;;;;;;;-141.59;100.00;61776.25;5079828;28;20201;-83
2022/11/05 05:56:19;;;;;;;0.60;0.60;;;;;;;-141.59;100.00;61776.25;5090629;28;20274;-82
2022/11/05 05:58:47;;;;;;;0.80;0.80;;;;;;;-141.59;100.00;61776.25;5085723;28;20309;-82
2022/11/05 06:01:18;;;;;;;0.97;0.77;;;;;;;-141.59;100.00;61776.25;5089561;28;20209;-82
2022/11/05 06:03:45;;;;;;;0.97;0.97;;;;;;;-141.59;100.00;61776.25;5083354;28;20241;-82
2022/11/05 06:06:13;;;;;;;2.50;1.10;;;;;;;-141.59;100.00;61776.25;5087733;28;20209;-83
2022/11/05 06:08:41;;;;;;;3.40;1.87;;;;;;;-141.59;100.00;61776.25;5086811;28;20201;-83
2022/11/05 06:11:08;;;;;;;2.23;1.50;;;;;;;-141.59;100.00;61776.25;5087896;28;20193;-83
2022/11/05 06:13:40;;;;;;;1.33;0.90;;;;;;;-141.59;100.00;61776.25;5084676;28;20250;-82
2022/11/05 06:16:11;;;;;;;0.87;0.80;;;;;;;-141.59;100.00;61776.25;5084625;28;20208;-83
2022/11/05 06:18:39;;;;;;;1.27;1.10;;;;;;;-141.59;100.00;61776.25;5080173;28;20229;-83
2022/11/05 06:21:08;;;;;;;1.87;1.00;;;;;;;-141.59;100.00;61776.25;5084744;28;20208;-83
2022/11/05 06:23:37;;;;;;;4.10;0.87;;;;;;;-141.59;100.00;61776.25;5082278;28;20232;-83
2022/11/05 06:26:06;;;;;;;1.70;0.70;;;;;;;-141.59;100.00;61776.25;5084048;28;20193;-83
2022/11/05 06:28:33;;;;;;;0.80;0.80;;;;;;;-141.59;100.00;61776.25;5082089;28;20266;-83
2022/11/05 06:31:01;;;;;;;0.80;0.70;;;;;;;-141.59;100.00;61776.25;5089714;28;20203;-84
2022/11/05 06:33:28;;;;;;;0.90;0.80;;;;;;;-141.59;100.00;61776.25;5084262;28;20209;-83
2022/11/05 06:35:59;;;;;;;0.70;0.70;;;;;;;-141.59;100.00;61776.25;5073641;28;20244;-83
2022/11/05 06:38:28;;;;;;;0.83;0.80;;;;;;;-141.59;100.00;61776.25;5090479;28;20220;-83
2022/11/05 06:40:58;;;;;;;0.70;0.70;;;;;;;-141.59;100.00;61776.25;5083866;28;20193;-83
2022/11/05 06:43:25;;;;;;;1.67;0.80;;;;;;;-141.59;100.00;61776.25;5082025;28;20227;-83
2022/11/05 06:45:52;;;;;;;0.63;0.63;;;;;;;-141.59;100.00;61776.25;5087269;28;20204;-84
2022/11/05 06:48:19;;;;;;;0.80;0.80;;;;;;;-141.59;100.00;61776.25;5081212;28;20208;-84
2022/11/05 06:50:47;;;;;;;0.70;0.70;;;;;;;-141.59;100.00;61776.25;5087458;28;20223;-84
2022/11/05 06:53:15;;;;;;;0.60;0.60;;;;;;;-141.59;100.00;61776.25;5082230;28;20209;-84
2022/11/05 06:55:43;;;;;;;1.63;0.70;;;;;;;-141.59;100.00;61776.25;5084264;28;20200;-83
2022/11/05 06:58:13;;;;;;;0.97;0.80;;;;;;;-141.59;100.00;61776.25;5082022;28;20200;-83
2022/11/05 07:00:40;;;;;;;0.80;0.80;;;;;;;-141.59;100.00;61776.25;5076658;28;20193;-83
2022/11/05 07:03:09;;;;;;;1.53;0.80;;;;;;;-141.59;100.00;61776.25;5087451;28;20236;-83
2022/11/05 07:05:39;;;;;;;0.87;0.80;;;;;;;-141.59;100.00;61776.25;5084933;28;20211;-83
2022/11/05 07:08:06;;;;;;;0.83;0.77;;;;;;;-141.59;100.00;61776.25;5087553;28;20196;-83
2022/11/05 07:10:35;;;;;;;0.80;0.80;;;;;;;-141.59;100.00;61776.25;5083887;28;20208;-82
2022/11/05 07:13:02;;;;;;;1.07;0.70;;;;;;;-141.59;100.00;61776.25;5080758;28;20215;-81
2022/11/05 07:15:32;;;;;;;2.53;0.80;;;;;;;-141.59;100.00;61776.25;5084234;28;20210;-83
2022/11/05 07:18:00;;;;;;;1.60;1.47;;;;;;;-141.59;100.00;61776.25;5074036;28;20201;-83
2022/11/05 07:20:28;;;;;;;0.60;0.60;;;;;;;-141.59;100.00;61776.25;5084080;28;20224;-83
2022/11/05 07:23:02;;;;;;;1.10;1.00;;;;;;;-141.59;100.00;61776.25;5087709;28;20297;-83
2022/11/05 07:25:31;;;;;;;0.87;0.80;;;;;;;-141.59;100.00;61776.25;5078948;28;20249;-83
2022/11/05 07:27:59;;;;;;;0.70;0.70;;;;;;;-141.59;100.00;61776.25;5081313;28;20525;-83
2022/11/05 07:30:27;;;;;;;0.97;0.80;;;;;;;-141.59;100.00;61776.25;5074728;28;20209;-83
2022/11/05 07:32:55;;;;;;;1.33;0.87;;;;;;;-141.59;100.00;61776.25;5086496;28;20296;-83
2022/11/05 07:35:26;;;;;;;1.87;0.70;;;;;;;-141.59;100.00;61776.25;5078656;28;20232;-83
2022/11/05 07:37:55;;;;;;;1.63;0.90;;;;;;;-141.59;100.00;61776.25;5085793;28;20354;-83
2022/11/05 07:40:27;;;;;;;1.30;0.90;;;;;;;-141.59;100.00;61776.25;5094935;27;20221;-84
2022/11/05 07:42:59;;;;;;;1.10;1.00;;;;;;;-141.59;100.00;61776.25;5080819;28;20283;-83
2022/11/05 07:45:29;;;;;;;0.70;0.70;;;;;;;-141.59;100.00;61776.25;5081629;28;20205;-83
2022/11/05 07:47:59;;;;;;;0.77;0.77;;;;;;;-141.59;100.00;61776.25;5080856;28;20273;-83
2022/11/05 07:50:28;;;;;;;0.57;0.57;;;;;;;-141.59;100.00;61776.25;5089681;28;20200;-83
2022/11/05 07:53:00;;;;;;;0.60;0.60;;;;;;;-141.59;100.00;61776.25;5086971;28;20226;-82
2022/11/05 07:55:28;;;;;;;0.60;0.60;;;;;;;-141.59;100.00;61776.25;5078627;28;20209;-82
2022/11/05 07:57:55;;;;;;;0.97;0.70;;;;;;;-141.59;100.00;61776.25;5074720;28;20204;-82
2022/11/05 08:00:25;;;;;;;1.00;0.90;;;;;;;-141.59;100.00;61776.25;5079535;28;20217;-82
2022/11/05 08:03:02;;;;;;;0.90;0.90;;;;;;;-141.59;100.00;61776.25;5081233;28;20193;-83
2022/11/05 08:05:33;;;;;;;0.60;0.60;;;;;;;-141.59;100.00;61776.25;5090564;28;20204;-83
2022/11/05 08:08:00;;;;;;;0.63;0.63;;;;;;;-141.59;100.00;61776.25;5085147;28;20296;-82
2022/11/05 08:10:28;;;;;;;0.60;0.60;;;;;;;-141.59;100.00;61776.25;5083566;28;20211;-83
2022/11/05 08:12:56;;;;;;;0.80;0.80;;;;;;;-141.59;100.00;61776.25;5081772;28;20214;-82
2022/11/05 08:15:24;;;;;;;1.40;0.90;;;;;;;-141.59;100.00;61776.25;5085869;28;20206;-83
2022/11/05 08:17:58;;;;;;;0.87;0.77;;;;;;;-141.59;100.00;61776.25;5084227;28;20236;-82
2022/11/05 08:20:26;;;;;;;2.27;0.80;;;;;;;-141.59;100.00;61776.25;5088337;28;20243;-83
2022/11/05 08:22:53;;;;;;;0.93;0.77;;;;;;;-141.59;100.00;61776.25;5085625;28;20208;-83
2022/11/05 08:25:20;;;;;;;0.97;0.77;;;;;;;-141.59;100.00;61776.25;5079819;28;20212;-83
2022/11/05 08:27:48;;;;;;;1.30;0.83;;;;;;;-141.59;100.00;61776.25;5083231;28;20197;-82
2022/11/05 08:30:15;;;;;;;1.77;1.13;;;;;;;-141.59;100.00;61776.25;5081790;28;20263;-83
2022/11/05 08:32:41;;;;;;;1.57;1.00;;;;;;;-141.59;100.00;61776.25;5085077;28;20210;-83
2022/11/05 08:35:09;;;;;;;1.00;0.90;;;;;;;-141.59;100.00;61776.25;5089226;28;20319;-82
2022/11/05 08:37:38;;;;;;;3.17;1.10;;;;;;;-141.59;100.00;61776.25;5089583;28;20212;-82
2022/11/05 08:40:06;;;;;;;1.67;1.00;;;;;;;-141.59;100.00;61776.25;5090552;28;20228;-82
2022/11/05 08:42:33;;;;;;;1.43;1.23;;;;;;;-141.59;100.00;61776.25;5082449;28;20205;-82
2022/11/05 08:45:00;;;;;;;1.57;1.00;;;;;;;-141.59;100.00;61776.25;5090172;28;20226;-82
2022/11/05 08:47:27;;;;;;;1.30;1.00;;;;;;;-141.59;100.00;61776.25;5082768;28;20186;-82
2022/11/05 08:49:54;;;;;;;1.03;0.90;;;;;;;-141.59;100.00;61776.25;5080289;28;20300;-82
2022/11/05 08:52:24;;;;;;;2.23;0.93;;;;;;;-141.59;100.00;61776.25;5093157;28;20201;-82
2022/11/05 08:54:52;;;;;;;0.80;0.80;;;;;;;-141.59;100.00;61776.25;5091246;28;20220;-82
2022/11/05 08:57:20;;;;;;;0.60;0.60;;;;;;;-141.59;100.00;61776.25;5087023;28;20212;-82
2022/11/05 08:59:46;;;;;;;0.70;0.70;;;;;;;-141.59;100.00;61776.25;5087218;28;20226;-82
2022/11/05 09:02:13;;;;;;;0.73;0.73;;;;;;;-141.59;100.00;61776.25;5090191;28;20211;-82
2022/11/05 09:04:44;;;;;;;0.90;0.87;;;;;;;-141.59;100.00;61776.25;5082992;28;20201;-82
2022/11/05 09:07:11;;;;;;;0.90;0.80;;;;;;;-141.59;100.00;61776.25;5084349;28;20204;-82
2022/11/05 09:09:38;;;;;;;0.80;0.70;;;;;;;-141.59;100.00;61776.25;5091649;28;20204;-82
2022/11/05 09:12:08;;;;;;;1.00;0.90;;;;;;;-141.59;100.00;61776.25;5088782;28;20220;-82
2022/11/05 09:14:35;;;;;;;0.57;0.57;;;;;;;-141.59;100.00;61776.25;5092456;28;20213;-82
2022/11/05 09:17:02;;;;;;;0.60;0.60;;;;;;;-141.59;100.00;61776.25;5088183;28;20193;-82
2022/11/05 09:19:29;;;;;;;0.60;0.60;;;;;;;-141.59;100.00;61776.25;5091342;28;20228;-82
2022/11/05 09:21:58;;;;;;;0.70;0.70;;;;;;;-141.59;100.00;61776.25;5089546;28;20213;-82
2022/11/05 09:24:25;;;;;;;0.90;0.70;;;;;;;-141.59;100.00;61776.25;5081692;28;20201;-82
2022/11/05 09:26:52;;;;;;;0.60;0.60;;;;;;;-141.59;100.00;61776.25;5089629;28;20195;-82
2022/11/05 09:29:20;;;;;;;0.57;0.57;;;;;;;-141.59;100.00;61776.25;5089091;28;20282;-82
2022/11/05 09:31:50;;;;;;;0.80;0.80;;;;;;;-141.59;100.00;61776.25;5089767;28;20197;-82
2022/11/05 09:34:17;;;;;;;0.63;0.63;;;;;;;-141.59;100.00;61776.25;5091828;28;20287;-82
2022/11/05 09:36:44;;;;;;;0.50;0.50;;;;;;;-141.59;100.00;61776.25;5086085;28;20225;-82
2022/11/05 09:39:11;;;;;;;0.50;0.50;;;;;;;-141.59;100.00;61776.25;5097303;28;20209;-82
2022/11/05 09:41:42;;;;;;;0.50;0.50;;;;;;;-141.59;100.00;61776.25;5082824;28;20203;-81
2022/11/05 09:44:13;;;;;;;0.60;0.60;;;;;;;-141.59;100.00;61776.25;5092289;28;20323;-82
2022/11/05 09:46:45;;;;;;;0.70;0.70;;;;;;;-141.59;100.00;61776.25;5093882;28;20294;-82
2022/11/05 09:49:23;;;;;;;0.50;0.50;;;;;;;-141.59;100.00;61776.25;5091150;28;20212;-82
2022/11/05 09:51:52;;;;;;;0.70;0.70;;;;;;;-141.59;100.00;61776.25;5089012;28;20207;-82
2022/11/05 09:54:23;;;;;;;0.70;0.70;;;;;;;-141.59;100.00;61776.25;5077412;28;20200;-83
2022/11/05 09:56:52;;;;;;;0.50;0.50;;;;;;;-141.59;100.00;61776.25;5094118;28;20205;-80
2022/11/05 09:59:24;;;;;;;1.10;0.83;;;;;;;-141.59;100.00;61776.25;5093755;28;20220;-83
2022/11/05 10:02:02;;;;;;;0.50;0.50;;;;;;;-141.59;100.00;61776.25;5085232;28;20206;-83
2022/11/05 10:04:33;;;;;;;0.50;0.50;;;;;;;-141.59;100.00;61776.25;5087461;28;20234;-82
2022/11/05 10:07:03;;;;;;;0.50;0.50;;;;;;;-141.59;100.00;61776.25;5082818;28;20221;-83
2022/11/05 10:09:36;;;;;;;0.60;0.60;;;;;;;-141.59;100.00;61776.25;5088728;28;20227;-82
2022/11/05 10:12:13;;;;;;;0.70;0.70;;;;;;;-141.59;100.00;61776.25;5097744;28;20275;-82
2022/11/05 10:14:44;;;;;;;0.50;0.50;;;;;;;-141.59;100.00;61776.25;5090137;28;20200;-82
2022/11/05 10:17:20;;;;;;;1.83;0.60;;;;;;;-141.59;100.00;61776.25;5083782;28;20261;-83
2022/11/05 10:19:56;;;;;;;2.50;0.70;;;;;;;-141.59;100.00;61776.25;5084857;28;20298;-83
2022/11/05 10:22:28;;;;;;;0.60;0.60;;;;;;;-141.59;100.00;61776.25;5083965;28;20230;-83
2022/11/05 10:24:55;;;;;;;0.60;0.60;;;;;;;-141.59;100.00;61776.25;5099060;28;20196;-82
2022/11/05 10:27:24;;;;;;;0.60;0.60;;;;;;;-141.59;100.00;61776.25;5087459;28;20215;-82
2022/11/05 10:29:52;;;;;;;1.53;0.80;;;;;;;-141.59;100.00;61776.25;5087931;28;20204;-82
2022/11/05 10:32:28;;;;;;;2.57;0.80;;;;;;;-141.59;100.00;61776.25;5088246;28;20201;-83
2022/11/05 10:35:00;;;;;;;0.70;0.70;;;;;;;-141.59;100.00;61776.25;5093074;28;20205;-82
2022/11/05 10:37:28;;;;;;;4.10;0.60;;;;;;;-141.59;100.00;61776.25;5090481;28;20200;-82
2022/11/05 10:39:56;;;;;;;0.50;0.50;;;;;;;-141.59;100.00;61776.25;5083754;28;20224;-83
2022/11/05 10:42:42;;;;;;;0.50;0.50;;;;;;;-141.59;100.00;61776.25;5072215;28;20228;-83
2022/11/05 10:45:20;;;;;;;0.83;0.60;;;;;;;-141.59;100.00;61776.25;5095268;28;20204;-83
2022/11/05 10:48:24;;;;;;;0.73;0.60;;;;;;;-141.59;100.00;61776.25;5091081;28;20920;-82
2022/11/05 10:50:52;;;;;;;1.40;0.70;;;;;;;-141.59;100.00;61776.25;5103301;27;20201;-82
2022/11/05 10:53:22;;;;;;;0.80;0.80;;;;;;;-141.59;100.00;61776.25;5087415;28;20202;-83
2022/11/05 10:55:52;;;;;;;1.73;0.80;;;;;;;-141.59;100.00;61776.25;5087066;28;20236;-82
2022/11/05 10:58:22;;;;;;;0.70;0.63;;;;;;;-141.59;100.00;61776.25;5090930;28;20373;-83
2022/11/05 11:01:04;;;;;;;1.37;0.90;;;;;;;-141.59;100.00;61776.25;5090162;28;20212;-83
2022/11/05 11:03:41;;;;;;;1.33;0.60;;;;;;;-141.59;100.00;61776.25;5082605;28;20232;-82
2022/11/05 11:06:21;;;;;;;1.43;0.60;;;;;;;-141.59;100.00;61776.25;5092347;28;20200;-82
2022/11/05 11:08:50;;;;;;;1.20;0.80;;;;;;;-141.59;100.00;61776.25;5083425;28;20208;-82
2022/11/05 11:11:30;;;;;;;0.70;0.70;;;;;;;-141.59;100.00;61776.25;5086934;28;20215;-82
2022/11/05 11:14:03;;;;;;;1.53;0.80;;;;;;;-141.59;100.00;61776.25;5085323;28;20211;-82
2022/11/05 11:16:36;;;;;;;1.97;1.00;;;;;;;-141.59;100.00;61776.25;5092604;28;20230;-82
2022/11/05 11:19:26;;;;;;;1.80;0.80;;;;;;;-141.59;100.00;61776.25;5097193;28;20225;-82
2022/11/05 11:22:13;;;;;;;0.60;0.60;;;;;;;-141.59;100.00;61776.25;5092445;28;20263;-82
2022/11/05 11:24:42;;;;;;;1.27;0.97;;;;;;;-141.59;100.00;61776.25;5085409;28;20232;-82
2022/11/05 11:27:12;;;;;;;1.83;0.70;;;;;;;-141.59;100.00;61776.25;5079788;28;20200;-82
2022/11/05 11:29:42;;;;;;;0.77;0.73;;;;;;;-141.59;100.00;61776.25;5100938;28;20224;-82
2022/11/05 11:32:14;;;;;;;2.60;1.20;;;;;;;-141.59;100.00;61776.25;5080898;28;20201;-82
2022/11/05 11:34:46;;;;;;;1.90;0.80;;;;;;;-141.59;100.00;61776.25;5093615;28;20204;-83
2022/11/05 11:37:17;;;;;;;0.97;0.80;;;;;;;-141.59;100.00;61776.25;5060443;28;20257;-83
2022/11/05 11:39:48;;;;;;;0.90;0.90;;;;;;;-141.59;100.00;61776.25;5040703;28;20210;-83
2022/11/05 11:42:22;;;;;;;1.83;1.00;;;;;;;-141.59;100.00;61776.25;5044251;28;20203;-83
2022/11/05 11:44:50;;;;;;;2.27;1.10;;;;;;;-141.59;100.00;61776.25;5046894;28;20294;-83
2022/11/05 11:47:20;;;;;;;1.23;1.03;;;;;;;-141.59;100.00;61776.25;5041415;28;20217;-83
2022/11/05 11:49:51;;;;;;;1.73;1.30;;;;;;;-141.59;100.00;61776.25;5058658;28;20308;-83
2022/11/05 11:52:25;;;;;;;0.83;0.80;;;;;;;-141.59;100.00;61776.25;5053684;28;20208;-82
2022/11/05 11:54:53;;;;;;;1.17;0.90;;;;;;;-141.59;100.00;61776.25;5043652;28;20206;-83
2022/11/05 11:57:23;;;;;;;2.57;0.90;;;;;;;-141.59;100.00;61776.25;5035340;28;20199;-83
2022/11/05 11:59:51;;;;;;;1.00;0.90;;;;;;;-141.59;100.00;61776.25;5045711;28;20249;-83
2022/11/05 12:02:33;;;;;;;0.80;0.80;;;;;;;-141.59;100.00;61776.25;5047268;28;20217;-83
2022/11/05 12:05:18;;;;;;;1.23;1.13;;;;;;;-141.59;100.00;61776.25;5047719;28;20198;-83